Impacts TAF Board INFO
FOR SITUATIONAL AWARENESS. NOT TO BE USED FOR FLIGHT PLANNING PURPOSES.
IDs:

KJFK - New York/Kennedy Int, NY, US

Issued at 0840 UTC 16 Dec 2017
Updated at 1102 UTC 16 Dec 2017
Potential Impact None Slight Moderate High
Time1051Z 16/12Z 16/13Z 16/14Z 16/15Z 16/16Z 16/17Z 16/18Z 16/19Z 16/20Z 16/21Z 16/22Z 16/23Z 17/00Z>>
Type OBS PRVL PRVL PRVL PRVL PRVL PRVL PRVL PRVL PRVL PRVL PRVL PRVL PRVL
VIS 10 >6 >6 >6 >6 >6 >6 >6 >6 >6 >6 >6 >6 >6
CIG -- -- -- -- -- 40 40 40 40 40 40 40 40 50
Cover FEW FEW FEW SCT SCT BKN BKN BKN BKN BKN BKN BKN BKN BKN
FltCat VFR VFR VFR VFR VFR VFR VFR VFR VFR VFR VFR VFR VFR VFR
WX -- -- -- -- -- -- -- -- -- -- VCSH VCSH VCSH --
WDir 260 270 270 260 260 270 270 270 270 270 270 270 270 310
WSpd 12 12 12 17 17 18 18 18 18 18 14 14 14 11
WGst -- 20 20 25 25 26 26 26 26 26 -- -- -- --

Raw TAF
KJFK 160840Z 1609/1712 27012G20KT P6SM FEW250
  FM161400 26017G25KT P6SM SCT040 SCT200
  FM161600 27018G26KT P6SM BKN040 BKN120
  FM162100 27014KT P6SM VCSH BKN040 BKN120
  FM170000 31011KT P6SM BKN050
  FM170500 34008KT P6SM SCT050


Raw METAR
KJFK 161051Z 26012KT 10SM FEW250 M03/M08 A3002 RMK AO2 SLP164 T10331078 $
KJFK 160951Z 27014KT 10SM FEW250 M03/M07 A2999 RMK AO2 SLP156 T10331072 $
KJFK 160851Z 27015G22KT 10SM SCT250 M03/M08 A2998 RMK AO2 SLP152 T10331078 53018 $

METAR Board
Radar Display
Forecast Discussion

FOR SITUATIONAL AWARENESS. NOT TO BE USED FOR FLIGHT PLANNING PURPOSES.